sensor_id;sensor_type;location;lat;lon;timestamp;P1;durP1;ratioP1;P2;durP2;ratioP2
72201;SDS011;60105;54.956;73.412;2022-11-21T00:01:17;14.95;;;6.93;;
72201;SDS011;60105;54.956;73.412;2022-11-21T00:03:47;13.55;;;7.05;;
72201;SDS011;60105;54.956;73.412;2022-11-21T00:06:23;12.53;;;6.63;;
72201;SDS011;60105;54.956;73.412;2022-11-21T00:08:49;10.93;;;5.82;;
72201;SDS011;60105;54.956;73.412;2022-11-21T00:11:16;9.32;;;5.32;;
72201;SDS011;60105;54.956;73.412;2022-11-21T00:13:42;9.93;;;5.82;;
72201;SDS011;60105;54.956;73.412;2022-11-21T00:16:19;14.43;;;6.55;;
72201;SDS011;60105;54.956;73.412;2022-11-21T00:18:55;13.05;;;5.35;;
72201;SDS011;60105;54.956;73.412;2022-11-21T00:21:22;8.77;;;5.93;;
72201;SDS011;60105;54.956;73.412;2022-11-21T00:23:48;13.27;;;7.63;;
72201;SDS011;60105;54.956;73.412;2022-11-21T00:26:27;14.35;;;6.47;;
72201;SDS011;60105;54.956;73.412;2022-11-21T00:28:53;13.18;;;6.40;;
72201;SDS011;60105;54.956;73.412;2022-11-21T00:31:20;13.65;;;7.20;;
72201;SDS011;60105;54.956;73.412;2022-11-21T00:33:47;12.03;;;6.83;;
72201;SDS011;60105;54.956;73.412;2022-11-21T00:36:13;14.90;;;7.18;;
72201;SDS011;60105;54.956;73.412;2022-11-21T00:38:39;11.10;;;6.40;;
72201;SDS011;60105;54.956;73.412;2022-11-21T00:41:07;9.93;;;6.05;;
72201;SDS011;60105;54.956;73.412;2022-11-21T00:43:37;19.70;;;8.63;;
72201;SDS011;60105;54.956;73.412;2022-11-21T00:46:04;15.30;;;7.13;;
72201;SDS011;60105;54.956;73.412;2022-11-21T00:48:35;16.25;;;6.20;;
72201;SDS011;60105;54.956;73.412;2022-11-21T00:51:01;10.60;;;5.83;;
72201;SDS011;60105;54.956;73.412;2022-11-21T00:53:33;11.77;;;7.70;;
72201;SDS011;60105;54.956;73.412;2022-11-21T00:55:59;13.23;;;6.70;;
72201;SDS011;60105;54.956;73.412;2022-11-21T00:58:25;14.32;;;6.32;;
72201;SDS011;60105;54.956;73.412;2022-11-21T01:00:52;24.00;;;7.23;;
72201;SDS011;60105;54.956;73.412;2022-11-21T01:03:31;9.73;;;6.15;;
72201;SDS011;60105;54.956;73.412;2022-11-21T01:06:02;14.05;;;7.60;;
72201;SDS011;60105;54.956;73.412;2022-11-21T01:08:32;9.63;;;5.88;;
72201;SDS011;60105;54.956;73.412;2022-11-21T01:11:04;15.87;;;7.70;;
72201;SDS011;60105;54.956;73.412;2022-11-21T01:13:31;10.32;;;7.47;;
72201;SDS011;60105;54.956;73.412;2022-11-21T01:16:08;11.10;;;7.15;;
72201;SDS011;60105;54.956;73.412;2022-11-21T01:18:43;12.55;;;7.88;;
72201;SDS011;60105;54.956;73.412;2022-11-21T01:23:43;18.48;;;7.97;;
72201;SDS011;60105;54.956;73.412;2022-11-21T01:26:11;16.25;;;7.85;;
72201;SDS011;60105;54.956;73.412;2022-11-21T01:28:43;15.47;;;6.37;;
72201;SDS011;60105;54.956;73.412;2022-11-21T01:31:11;16.77;;;7.53;;
72201;SDS011;60105;54.956;73.412;2022-11-21T01:33:42;12.32;;;6.88;;
72201;SDS011;60105;54.956;73.412;2022-11-21T01:36:21;18.17;;;8.40;;
72201;SDS011;60105;54.956;73.412;2022-11-21T01:38:50;21.83;;;9.02;;
72201;SDS011;60105;54.956;73.412;2022-11-21T01:41:22;21.55;;;10.00;;
72201;SDS011;60105;54.956;73.412;2022-11-21T01:43:51;18.02;;;9.20;;
72201;SDS011;60105;54.956;73.412;2022-11-21T01:46:18;15.83;;;8.70;;
72201;SDS011;60105;54.956;73.412;2022-11-21T01:48:48;17.08;;;8.45;;
72201;SDS011;60105;54.956;73.412;2022-11-21T01:51:30;17.75;;;9.50;;
72201;SDS011;60105;54.956;73.412;2022-11-21T01:54:21;14.60;;;8.80;;
72201;SDS011;60105;54.956;73.412;2022-11-21T01:59:59;20.40;;;9.52;;
72201;SDS011;60105;54.956;73.412;2022-11-21T02:02:32;17.60;;;9.15;;
72201;SDS011;60105;54.956;73.412;2022-11-21T02:05:04;16.33;;;9.43;;
72201;SDS011;60105;54.956;73.412;2022-11-21T02:07:34;18.63;;;9.05;;
72201;SDS011;60105;54.956;73.412;2022-11-21T02:10:06;23.80;;;10.02;;
72201;SDS011;60105;54.956;73.412;2022-11-21T02:12:41;20.73;;;8.55;;
72201;SDS011;60105;54.956;73.412;2022-11-21T02:15:19;23.53;;;12.53;;
72201;SDS011;60105;54.956;73.412;2022-11-21T02:17:47;20.35;;;10.07;;
72201;SDS011;60105;54.956;73.412;2022-11-21T02:20:14;19.02;;;9.63;;
72201;SDS011;60105;54.956;73.412;2022-11-21T02:22:53;22.75;;;11.50;;
72201;SDS011;60105;54.956;73.412;2022-11-21T02:25:33;17.20;;;9.03;;
72201;SDS011;60105;54.956;73.412;2022-11-21T02:28:02;15.32;;;9.00;;
72201;SDS011;60105;54.956;73.412;2022-11-21T02:30:32;22.40;;;10.45;;
72201;SDS011;60105;54.956;73.412;2022-11-21T02:33:04;24.05;;;11.90;;
72201;SDS011;60105;54.956;73.412;2022-11-21T02:35:41;23.97;;;11.97;;
72201;SDS011;60105;54.956;73.412;2022-11-21T02:40:49;54.95;;;22.50;;
72201;SDS011;60105;54.956;73.412;2022-11-21T02:46:20;29.17;;;15.73;;
72201;SDS011;60105;54.956;73.412;2022-11-21T02:48:46;34.10;;;14.55;;
72201;SDS011;60105;54.956;73.412;2022-11-21T02:51:12;34.00;;;13.25;;
72201;SDS011;60105;54.956;73.412;2022-11-21T02:53:39;24.08;;;12.15;;
72201;SDS011;60105;54.956;73.412;2022-11-21T02:56:05;34.85;;;13.05;;
72201;SDS011;60105;54.956;73.412;2022-11-21T02:58:31;29.73;;;12.90;;
72201;SDS011;60105;54.956;73.412;2022-11-21T03:01:00;19.80;;;11.27;;
72201;SDS011;60105;54.956;73.412;2022-11-21T03:03:26;18.98;;;9.80;;
72201;SDS011;60105;54.956;73.412;2022-11-21T03:05:52;20.48;;;11.38;;
72201;SDS011;60105;54.956;73.412;2022-11-21T03:08:19;20.33;;;10.13;;
72201;SDS011;60105;54.956;73.412;2022-11-21T03:10:45;33.13;;;15.82;;
72201;SDS011;60105;54.956;73.412;2022-11-21T03:13:23;25.50;;;14.48;;
72201;SDS011;60105;54.956;73.412;2022-11-21T03:15:49;36.40;;;16.38;;
72201;SDS011;60105;54.956;73.412;2022-11-21T03:18:15;45.70;;;17.53;;
72201;SDS011;60105;54.956;73.412;2022-11-21T03:20:41;33.42;;;14.30;;
72201;SDS011;60105;54.956;73.412;2022-11-21T03:23:07;30.95;;;15.77;;
72201;SDS011;60105;54.956;73.412;2022-11-21T03:25:33;36.78;;;15.80;;
72201;SDS011;60105;54.956;73.412;2022-11-21T03:28:10;31.23;;;14.50;;
72201;SDS011;60105;54.956;73.412;2022-11-21T03:30:36;29.75;;;14.40;;
72201;SDS011;60105;54.956;73.412;2022-11-21T03:33:13;33.65;;;15.25;;
72201;SDS011;60105;54.956;73.412;2022-11-21T03:35:39;38.42;;;16.25;;
72201;SDS011;60105;54.956;73.412;2022-11-21T03:38:05;35.38;;;14.75;;
72201;SDS011;60105;54.956;73.412;2022-11-21T03:40:31;33.63;;;14.73;;
72201;SDS011;60105;54.956;73.412;2022-11-21T03:43:04;38.78;;;15.32;;
72201;SDS011;60105;54.956;73.412;2022-11-21T03:45:30;29.38;;;13.50;;
72201;SDS011;60105;54.956;73.412;2022-11-21T03:48:01;41.97;;;13.82;;
72201;SDS011;60105;54.956;73.412;2022-11-21T03:50:27;26.20;;;13.80;;
72201;SDS011;60105;54.956;73.412;2022-11-21T03:52:53;28.35;;;13.65;;
72201;SDS011;60105;54.956;73.412;2022-11-21T03:55:25;33.85;;;15.85;;
72201;SDS011;60105;54.956;73.412;2022-11-21T03:57:51;37.15;;;17.02;;
72201;SDS011;60105;54.956;73.412;2022-11-21T04:00:17;44.83;;;19.45;;
72201;SDS011;60105;54.956;73.412;2022-11-21T04:02:43;34.90;;;14.27;;
72201;SDS011;60105;54.956;73.412;2022-11-21T04:05:10;29.05;;;12.75;;
72201;SDS011;60105;54.956;73.412;2022-11-21T04:07:36;29.92;;;12.60;;
72201;SDS011;60105;54.956;73.412;2022-11-21T04:10:02;23.67;;;11.82;;
72201;SDS011;60105;54.956;73.412;2022-11-21T04:12:33;29.17;;;13.07;;
72201;SDS011;60105;54.956;73.412;2022-11-21T04:15:00;33.30;;;13.90;;
72201;SDS011;60105;54.956;73.412;2022-11-21T04:17:31;31.00;;;13.52;;
72201;SDS011;60105;54.956;73.412;2022-11-21T04:20:07;30.42;;;12.82;;
72201;SDS011;60105;54.956;73.412;2022-11-21T04:22:38;32.00;;;14.77;;
72201;SDS011;60105;54.956;73.412;2022-11-21T04:25:05;37.30;;;15.50;;
72201;SDS011;60105;54.956;73.412;2022-11-21T04:27:39;25.60;;;13.70;;
72201;SDS011;60105;54.956;73.412;2022-11-21T04:30:06;22.17;;;11.65;;
72201;SDS011;60105;54.956;73.412;2022-11-21T04:32:32;20.77;;;10.85;;
72201;SDS011;60105;54.956;73.412;2022-11-21T04:35:03;31.38;;;11.07;;
72201;SDS011;60105;54.956;73.412;2022-11-21T04:37:34;26.00;;;10.20;;
72201;SDS011;60105;54.956;73.412;2022-11-21T04:40:13;22.88;;;11.20;;
72201;SDS011;60105;54.956;73.412;2022-11-21T04:42:41;16.98;;;8.88;;
72201;SDS011;60105;54.956;73.412;2022-11-21T04:45:11;21.52;;;10.90;;
72201;SDS011;60105;54.956;73.412;2022-11-21T04:47:39;17.35;;;9.95;;
72201;SDS011;60105;54.956;73.412;2022-11-21T04:50:07;22.40;;;11.97;;
72201;SDS011;60105;54.956;73.412;2022-11-21T04:52:40;26.50;;;12.30;;
72201;SDS011;60105;54.956;73.412;2022-11-21T04:55:07;23.60;;;9.95;;
72201;SDS011;60105;54.956;73.412;2022-11-21T04:57:42;22.83;;;9.82;;
72201;SDS011;60105;54.956;73.412;2022-11-21T05:00:15;26.23;;;11.18;;
72201;SDS011;60105;54.956;73.412;2022-11-21T05:02:52;22.10;;;9.80;;
72201;SDS011;60105;54.956;73.412;2022-11-21T05:05:28;18.48;;;9.15;;
72201;SDS011;60105;54.956;73.412;2022-11-21T05:08:04;23.13;;;9.63;;
72201;SDS011;60105;54.956;73.412;2022-11-21T05:10:30;21.52;;;9.90;;
72201;SDS011;60105;54.956;73.412;2022-11-21T05:13:16;15.80;;;7.82;;
72201;SDS011;60105;54.956;73.412;2022-11-21T05:15:45;17.77;;;9.10;;
72201;SDS011;60105;54.956;73.412;2022-11-21T05:18:19;22.30;;;9.93;;
72201;SDS011;60105;54.956;73.412;2022-11-21T05:20:45;14.73;;;8.60;;
72201;SDS011;60105;54.956;73.412;2022-11-21T05:23:16;14.70;;;8.85;;
72201;SDS011;60105;54.956;73.412;2022-11-21T05:25:47;21.45;;;8.02;;
72201;SDS011;60105;54.956;73.412;2022-11-21T05:28:13;15.93;;;8.07;;
72201;SDS011;60105;54.956;73.412;2022-11-21T05:30:39;12.45;;;8.48;;
72201;SDS011;60105;54.956;73.412;2022-11-21T05:33:06;13.38;;;7.88;;
72201;SDS011;60105;54.956;73.412;2022-11-21T05:35:32;16.63;;;7.97;;
72201;SDS011;60105;54.956;73.412;2022-11-21T05:37:58;18.10;;;8.73;;
72201;SDS011;60105;54.956;73.412;2022-11-21T05:40:24;16.00;;;8.50;;
72201;SDS011;60105;54.956;73.412;2022-11-21T05:42:51;16.40;;;9.90;;
72201;SDS011;60105;54.956;73.412;2022-11-21T05:45:36;18.05;;;7.43;;
72201;SDS011;60105;54.956;73.412;2022-11-21T05:48:02;13.75;;;6.85;;
72201;SDS011;60105;54.956;73.412;2022-11-21T05:50:33;11.85;;;8.20;;
72201;SDS011;60105;54.956;73.412;2022-11-21T05:53:11;16.73;;;8.63;;
72201;SDS011;60105;54.956;73.412;2022-11-21T05:55:37;16.42;;;8.65;;
72201;SDS011;60105;54.956;73.412;2022-11-21T05:58:03;15.75;;;9.07;;
72201;SDS011;60105;54.956;73.412;2022-11-21T06:00:29;13.20;;;8.52;;
72201;SDS011;60105;54.956;73.412;2022-11-21T06:02:55;17.52;;;8.25;;
72201;SDS011;60105;54.956;73.412;2022-11-21T06:05:40;13.63;;;8.13;;
72201;SDS011;60105;54.956;73.412;2022-11-21T06:08:17;18.92;;;8.32;;
72201;SDS011;60105;54.956;73.412;2022-11-21T06:10:43;16.08;;;8.52;;
72201;SDS011;60105;54.956;73.412;2022-11-21T06:13:09;18.48;;;9.88;;
72201;SDS011;60105;54.956;73.412;2022-11-21T06:16:00;36.38;;;13.55;;
72201;SDS011;60105;54.956;73.412;2022-11-21T06:18:35;23.70;;;10.67;;
72201;SDS011;60105;54.956;73.412;2022-11-21T06:21:03;22.60;;;9.00;;
72201;SDS011;60105;54.956;73.412;2022-11-21T06:23:34;23.20;;;11.07;;
72201;SDS011;60105;54.956;73.412;2022-11-21T06:26:02;19.90;;;8.45;;
72201;SDS011;60105;54.956;73.412;2022-11-21T06:28:32;16.35;;;9.15;;
72201;SDS011;60105;54.956;73.412;2022-11-21T06:31:06;18.57;;;9.90;;
72201;SDS011;60105;54.956;73.412;2022-11-21T06:33:40;15.82;;;8.77;;
72201;SDS011;60105;54.956;73.412;2022-11-21T06:36:14;25.73;;;9.85;;
72201;SDS011;60105;54.956;73.412;2022-11-21T06:38:42;22.27;;;10.40;;
72201;SDS011;60105;54.956;73.412;2022-11-21T06:41:19;24.98;;;11.45;;
72201;SDS011;60105;54.956;73.412;2022-11-21T06:43:51;21.93;;;10.10;;
72201;SDS011;60105;54.956;73.412;2022-11-21T06:46:17;20.58;;;10.77;;
72201;SDS011;60105;54.956;73.412;2022-11-21T06:48:54;23.88;;;11.75;;
72201;SDS011;60105;54.956;73.412;2022-11-21T06:51:31;23.63;;;12.88;;
72201;SDS011;60105;54.956;73.412;2022-11-21T06:54:03;21.75;;;11.80;;
72201;SDS011;60105;54.956;73.412;2022-11-21T06:56:39;21.67;;;12.07;;
72201;SDS011;60105;54.956;73.412;2022-11-21T06:59:15;25.95;;;12.48;;
72201;SDS011;60105;54.956;73.412;2022-11-21T07:01:41;29.45;;;12.40;;
72201;SDS011;60105;54.956;73.412;2022-11-21T07:04:07;21.15;;;11.38;;
72201;SDS011;60105;54.956;73.412;2022-11-21T07:06:34;26.30;;;12.20;;
72201;SDS011;60105;54.956;73.412;2022-11-21T07:09:00;14.47;;;7.97;;
72201;SDS011;60105;54.956;73.412;2022-11-21T07:11:26;18.35;;;7.97;;
72201;SDS011;60105;54.956;73.412;2022-11-21T07:13:53;14.93;;;8.48;;
72201;SDS011;60105;54.956;73.412;2022-11-21T07:16:25;16.70;;;6.95;;
72201;SDS011;60105;54.956;73.412;2022-11-21T07:18:55;18.30;;;8.63;;
72201;SDS011;60105;54.956;73.412;2022-11-21T07:21:26;18.20;;;8.40;;
72201;SDS011;60105;54.956;73.412;2022-11-21T07:23:58;16.98;;;8.82;;
72201;SDS011;60105;54.956;73.412;2022-11-21T07:26:34;14.63;;;8.43;;
72201;SDS011;60105;54.956;73.412;2022-11-21T07:29:00;17.27;;;9.23;;
72201;SDS011;60105;54.956;73.412;2022-11-21T07:31:32;17.50;;;8.93;;
72201;SDS011;60105;54.956;73.412;2022-11-21T07:34:08;15.97;;;8.03;;
72201;SDS011;60105;54.956;73.412;2022-11-21T07:36:39;16.38;;;8.68;;
72201;SDS011;60105;54.956;73.412;2022-11-21T07:39:06;17.77;;;8.75;;
72201;SDS011;60105;54.956;73.412;2022-11-21T07:41:32;13.90;;;7.97;;
72201;SDS011;60105;54.956;73.412;2022-11-21T07:43:58;12.45;;;6.93;;
72201;SDS011;60105;54.956;73.412;2022-11-21T07:46:24;21.13;;;7.90;;
72201;SDS011;60105;54.956;73.412;2022-11-21T07:48:50;15.10;;;7.70;;
72201;SDS011;60105;54.956;73.412;2022-11-21T07:51:17;15.02;;;6.97;;
72201;SDS011;60105;54.956;73.412;2022-11-21T07:53:43;13.38;;;6.85;;
72201;SDS011;60105;54.956;73.412;2022-11-21T07:56:15;10.45;;;7.18;;
72201;SDS011;60105;54.956;73.412;2022-11-21T07:58:51;13.33;;;8.07;;
72201;SDS011;60105;54.956;73.412;2022-11-21T08:01:18;19.02;;;8.07;;
72201;SDS011;60105;54.956;73.412;2022-11-21T08:03:46;12.52;;;7.47;;
72201;SDS011;60105;54.956;73.412;2022-11-21T08:06:17;11.65;;;7.32;;
72201;SDS011;60105;54.956;73.412;2022-11-21T08:08:53;16.33;;;7.80;;
72201;SDS011;60105;54.956;73.412;2022-11-21T08:11:20;13.33;;;6.20;;
72201;SDS011;60105;54.956;73.412;2022-11-21T08:13:46;11.65;;;6.53;;
72201;SDS011;60105;54.956;73.412;2022-11-21T08:16:13;14.40;;;7.35;;
72201;SDS011;60105;54.956;73.412;2022-11-21T08:18:40;14.95;;;7.50;;
72201;SDS011;60105;54.956;73.412;2022-11-21T08:21:11;11.45;;;6.82;;
72201;SDS011;60105;54.956;73.412;2022-11-21T08:23:37;8.87;;;5.10;;
72201;SDS011;60105;54.956;73.412;2022-11-21T08:26:03;16.85;;;7.22;;
72201;SDS011;60105;54.956;73.412;2022-11-21T08:28:38;12.68;;;6.30;;
72201;SDS011;60105;54.956;73.412;2022-11-21T08:31:11;12.10;;;7.10;;
72201;SDS011;60105;54.956;73.412;2022-11-21T08:33:37;21.92;;;10.05;;
72201;SDS011;60105;54.956;73.412;2022-11-21T08:36:04;11.13;;;6.57;;
72201;SDS011;60105;54.956;73.412;2022-11-21T08:38:31;15.15;;;8.13;;
72201;SDS011;60105;54.956;73.412;2022-11-21T08:40:58;12.70;;;7.10;;
72201;SDS011;60105;54.956;73.412;2022-11-21T08:43:43;13.57;;;6.70;;
72201;SDS011;60105;54.956;73.412;2022-11-21T08:46:09;12.52;;;7.68;;
72201;SDS011;60105;54.956;73.412;2022-11-21T08:48:45;12.23;;;6.43;;
72201;SDS011;60105;54.956;73.412;2022-11-21T08:51:12;10.48;;;7.15;;
72201;SDS011;60105;54.956;73.412;2022-11-21T08:53:41;14.80;;;7.10;;
72201;SDS011;60105;54.956;73.412;2022-11-21T08:56:07;14.93;;;7.55;;
72201;SDS011;60105;54.956;73.412;2022-11-21T08:58:33;14.90;;;7.03;;
72201;SDS011;60105;54.956;73.412;2022-11-21T09:01:00;15.13;;;7.63;;
72201;SDS011;60105;54.956;73.412;2022-11-21T09:03:26;15.50;;;6.68;;
72201;SDS011;60105;54.956;73.412;2022-11-21T09:05:54;15.43;;;7.80;;
72201;SDS011;60105;54.956;73.412;2022-11-21T09:08:21;17.02;;;7.70;;
72201;SDS011;60105;54.956;73.412;2022-11-21T09:10:47;17.08;;;9.52;;
72201;SDS011;60105;54.956;73.412;2022-11-21T09:13:14;13.70;;;7.40;;
72201;SDS011;60105;54.956;73.412;2022-11-21T09:15:40;18.45;;;8.30;;
72201;SDS011;60105;54.956;73.412;2022-11-21T09:18:30;14.00;;;7.68;;
72201;SDS011;60105;54.956;73.412;2022-11-21T09:20:56;14.00;;;7.45;;
72201;SDS011;60105;54.956;73.412;2022-11-21T09:23:22;13.68;;;7.80;;
72201;SDS011;60105;54.956;73.412;2022-11-21T09:25:49;17.10;;;8.07;;
72201;SDS011;60105;54.956;73.412;2022-11-21T09:28:15;14.52;;;8.13;;
72201;SDS011;60105;54.956;73.412;2022-11-21T09:30:41;15.73;;;6.68;;
72201;SDS011;60105;54.956;73.412;2022-11-21T09:33:12;13.45;;;7.68;;
72201;SDS011;60105;54.956;73.412;2022-11-21T09:35:41;13.43;;;7.65;;
72201;SDS011;60105;54.956;73.412;2022-11-21T09:38:12;13.13;;;7.37;;
72201;SDS011;60105;54.956;73.412;2022-11-21T09:40:48;14.52;;;7.43;;
72201;SDS011;60105;54.956;73.412;2022-11-21T09:46:11;18.38;;;8.45;;
72201;SDS011;60105;54.956;73.412;2022-11-21T09:49:00;15.73;;;8.35;;
72201;SDS011;60105;54.956;73.412;2022-11-21T09:51:32;11.73;;;6.50;;
72201;SDS011;60105;54.956;73.412;2022-11-21T09:54:27;14.05;;;6.97;;
72201;SDS011;60105;54.956;73.412;2022-11-21T09:56:56;13.93;;;6.93;;
72201;SDS011;60105;54.956;73.412;2022-11-21T09:59:36;12.68;;;6.63;;
72201;SDS011;60105;54.956;73.412;2022-11-21T10:02:14;13.05;;;7.78;;
72201;SDS011;60105;54.956;73.412;2022-11-21T10:04:43;15.63;;;6.33;;
72201;SDS011;60105;54.956;73.412;2022-11-21T10:07:28;12.75;;;7.38;;
72201;SDS011;60105;54.956;73.412;2022-11-21T10:10:19;12.48;;;6.60;;
72201;SDS011;60105;54.956;73.412;2022-11-21T10:18:27;12.27;;;7.10;;
72201;SDS011;60105;54.956;73.412;2022-11-21T10:21:05;13.02;;;6.18;;
72201;SDS011;60105;54.956;73.412;2022-11-21T10:24:11;14.10;;;6.50;;
72201;SDS011;60105;54.956;73.412;2022-11-21T10:29:35;11.68;;;6.78;;
72201;SDS011;60105;54.956;73.412;2022-11-21T10:32:14;13.63;;;7.50;;
72201;SDS011;60105;54.956;73.412;2022-11-21T10:34:43;13.40;;;8.68;;
72201;SDS011;60105;54.956;73.412;2022-11-21T10:37:14;17.42;;;8.80;;
72201;SDS011;60105;54.956;73.412;2022-11-21T10:39:55;12.52;;;7.47;;
72201;SDS011;60105;54.956;73.412;2022-11-21T10:45:21;13.30;;;6.30;;
72201;SDS011;60105;54.956;73.412;2022-11-21T10:47:48;17.88;;;7.95;;
72201;SDS011;60105;54.956;73.412;2022-11-21T10:50:23;17.45;;;8.13;;
72201;SDS011;60105;54.956;73.412;2022-11-21T10:53:11;26.70;;;8.95;;
72201;SDS011;60105;54.956;73.412;2022-11-21T10:56:01;23.55;;;8.35;;
72201;SDS011;60105;54.956;73.412;2022-11-21T11:01:21;15.13;;;9.07;;
72201;SDS011;60105;54.956;73.412;2022-11-21T11:06:42;22.77;;;9.90;;
72201;SDS011;60105;54.956;73.412;2022-11-21T11:12:18;20.23;;;9.50;;
72201;SDS011;60105;54.956;73.412;2022-11-21T11:15:19;17.05;;;8.73;;
72201;SDS011;60105;54.956;73.412;2022-11-21T11:17:55;16.80;;;8.57;;
72201;SDS011;60105;54.956;73.412;2022-11-21T11:20:31;16.15;;;8.80;;
72201;SDS011;60105;54.956;73.412;2022-11-21T11:25:51;18.43;;;9.67;;
72201;SDS011;60105;54.956;73.412;2022-11-21T11:28:33;11.38;;;8.05;;
72201;SDS011;60105;54.956;73.412;2022-11-21T11:31:01;14.25;;;7.85;;
72201;SDS011;60105;54.956;73.412;2022-11-21T11:33:38;19.95;;;8.27;;
72201;SDS011;60105;54.956;73.412;2022-11-21T11:42:41;17.33;;;10.15;;
72201;SDS011;60105;54.956;73.412;2022-11-21T11:48:41;23.65;;;10.43;;
72201;SDS011;60105;54.956;73.412;2022-11-21T11:51:20;29.65;;;12.77;;
72201;SDS011;60105;54.956;73.412;2022-11-21T11:54:02;27.87;;;13.17;;
72201;SDS011;60105;54.956;73.412;2022-11-21T11:56:40;22.90;;;11.70;;
72201;SDS011;60105;54.956;73.412;2022-11-21T11:59:17;27.55;;;13.20;;
72201;SDS011;60105;54.956;73.412;2022-11-21T12:04:45;25.65;;;13.43;;
72201;SDS011;60105;54.956;73.412;2022-11-21T12:07:21;25.63;;;15.73;;
72201;SDS011;60105;54.956;73.412;2022-11-21T12:18:19;25.75;;;10.65;;
72201;SDS011;60105;54.956;73.412;2022-11-21T12:23:30;24.60;;;13.20;;
72201;SDS011;60105;54.956;73.412;2022-11-21T12:40:56;34.53;;;14.00;;
72201;SDS011;60105;54.956;73.412;2022-11-21T12:43:23;21.77;;;11.73;;
72201;SDS011;60105;54.956;73.412;2022-11-21T12:46:08;20.85;;;12.18;;
72201;SDS011;60105;54.956;73.412;2022-11-21T13:03:14;28.53;;;12.30;;
72201;SDS011;60105;54.956;73.412;2022-11-21T13:05:54;31.02;;;13.15;;
72201;SDS011;60105;54.956;73.412;2022-11-21T13:08:33;25.48;;;11.68;;
72201;SDS011;60105;54.956;73.412;2022-11-21T13:11:04;30.63;;;12.90;;
72201;SDS011;60105;54.956;73.412;2022-11-21T13:14:17;30.88;;;13.80;;
72201;SDS011;60105;54.956;73.412;2022-11-21T13:27:35;21.35;;;11.43;;
72201;SDS011;60105;54.956;73.412;2022-11-21T13:32:37;27.92;;;13.45;;
72201;SDS011;60105;54.956;73.412;2022-11-21T13:45:49;17.95;;;10.73;;
72201;SDS011;60105;54.956;73.412;2022-11-21T13:48:32;25.13;;;11.23;;
72201;SDS011;60105;54.956;73.412;2022-11-21T14:00:31;14.02;;;7.35;;
72201;SDS011;60105;54.956;73.412;2022-11-21T14:09:05;15.02;;;7.15;;
72201;SDS011;60105;54.956;73.412;2022-11-21T14:12:04;20.90;;;7.70;;
72201;SDS011;60105;54.956;73.412;2022-11-21T14:14:50;10.95;;;7.25;;
72201;SDS011;60105;54.956;73.412;2022-11-21T14:19:59;11.70;;;6.25;;
72201;SDS011;60105;54.956;73.412;2022-11-21T14:22:39;12.98;;;6.53;;
72201;SDS011;60105;54.956;73.412;2022-11-21T14:25:09;13.13;;;7.00;;
72201;SDS011;60105;54.956;73.412;2022-11-21T14:27:43;11.80;;;7.78;;
72201;SDS011;60105;54.956;73.412;2022-11-21T14:30:32;11.45;;;5.63;;
72201;SDS011;60105;54.956;73.412;2022-11-21T14:33:21;9.00;;;6.50;;
72201;SDS011;60105;54.956;73.412;2022-11-21T14:38:44;20.65;;;7.63;;
72201;SDS011;60105;54.956;73.412;2022-11-21T14:46:33;8.20;;;6.10;;
72201;SDS011;60105;54.956;73.412;2022-11-21T14:54:46;11.37;;;6.17;;
72201;SDS011;60105;54.956;73.412;2022-11-21T14:57:19;13.00;;;7.40;;
72201;SDS011;60105;54.956;73.412;2022-11-21T14:59:49;9.02;;;5.30;;
72201;SDS011;60105;54.956;73.412;2022-11-21T15:02:22;10.73;;;6.32;;
72201;SDS011;60105;54.956;73.412;2022-11-21T15:04:53;9.60;;;5.97;;
72201;SDS011;60105;54.956;73.412;2022-11-21T15:07:39;12.57;;;6.13;;
72201;SDS011;60105;54.956;73.412;2022-11-21T15:10:20;14.32;;;6.00;;
72201;SDS011;60105;54.956;73.412;2022-11-21T15:18:13;7.45;;;5.32;;
72201;SDS011;60105;54.956;73.412;2022-11-21T15:20:50;7.65;;;5.03;;
72201;SDS011;60105;54.956;73.412;2022-11-21T15:23:33;10.27;;;5.95;;
72201;SDS011;60105;54.956;73.412;2022-11-21T15:26:03;14.40;;;6.32;;
72201;SDS011;60105;54.956;73.412;2022-11-21T15:28:29;12.80;;;7.00;;
72201;SDS011;60105;54.956;73.412;2022-11-21T15:31:18;10.32;;;6.70;;
72201;SDS011;60105;54.956;73.412;2022-11-21T15:33:59;13.10;;;5.85;;
72201;SDS011;60105;54.956;73.412;2022-11-21T15:36:32;11.80;;;7.13;;
72201;SDS011;60105;54.956;73.412;2022-11-21T15:41:37;12.75;;;6.13;;
72201;SDS011;60105;54.956;73.412;2022-11-21T15:46:31;12.25;;;6.45;;
72201;SDS011;60105;54.956;73.412;2022-11-21T15:49:04;12.30;;;5.97;;
72201;SDS011;60105;54.956;73.412;2022-11-21T15:51:42;12.27;;;5.85;;
72201;SDS011;60105;54.956;73.412;2022-11-21T15:54:11;9.65;;;6.43;;
72201;SDS011;60105;54.956;73.412;2022-11-21T15:56:42;10.13;;;6.77;;
72201;SDS011;60105;54.956;73.412;2022-11-21T15:59:10;11.82;;;6.00;;
72201;SDS011;60105;54.956;73.412;2022-11-21T16:01:37;15.70;;;6.70;;
72201;SDS011;60105;54.956;73.412;2022-11-21T16:04:05;12.63;;;5.88;;
72201;SDS011;60105;54.956;73.412;2022-11-21T16:06:33;12.40;;;6.27;;
72201;SDS011;60105;54.956;73.412;2022-11-21T16:09:00;13.60;;;6.55;;
72201;SDS011;60105;54.956;73.412;2022-11-21T16:11:31;11.90;;;6.78;;
72201;SDS011;60105;54.956;73.412;2022-11-21T16:14:02;19.70;;;7.22;;
72201;SDS011;60105;54.956;73.412;2022-11-21T16:16:31;14.43;;;6.90;;
72201;SDS011;60105;54.956;73.412;2022-11-21T16:18:59;14.27;;;7.28;;
72201;SDS011;60105;54.956;73.412;2022-11-21T16:21:25;10.35;;;5.38;;
72201;SDS011;60105;54.956;73.412;2022-11-21T16:23:51;14.18;;;6.47;;
72201;SDS011;60105;54.956;73.412;2022-11-21T16:26:25;15.32;;;7.40;;
72201;SDS011;60105;54.956;73.412;2022-11-21T16:28:54;11.98;;;7.45;;
72201;SDS011;60105;54.956;73.412;2022-11-21T16:31:27;13.13;;;6.45;;
72201;SDS011;60105;54.956;73.412;2022-11-21T16:34:01;13.75;;;6.68;;
72201;SDS011;60105;54.956;73.412;2022-11-21T16:36:31;17.85;;;8.05;;
72201;SDS011;60105;54.956;73.412;2022-11-21T16:38:57;12.65;;;6.68;;
72201;SDS011;60105;54.956;73.412;2022-11-21T16:41:26;12.85;;;7.15;;
72201;SDS011;60105;54.956;73.412;2022-11-21T16:43:53;15.88;;;6.50;;
72201;SDS011;60105;54.956;73.412;2022-11-21T16:46:21;12.05;;;7.40;;
72201;SDS011;60105;54.956;73.412;2022-11-21T16:48:56;9.90;;;6.50;;
72201;SDS011;60105;54.956;73.412;2022-11-21T16:51:24;15.80;;;6.78;;
72201;SDS011;60105;54.956;73.412;2022-11-21T16:54:00;8.80;;;5.85;;
72201;SDS011;60105;54.956;73.412;2022-11-21T16:56:26;12.77;;;6.75;;
72201;SDS011;60105;54.956;73.412;2022-11-21T16:59:03;10.10;;;6.60;;
72201;SDS011;60105;54.956;73.412;2022-11-21T17:01:29;15.07;;;7.28;;
72201;SDS011;60105;54.956;73.412;2022-11-21T17:03:55;10.77;;;5.85;;
72201;SDS011;60105;54.956;73.412;2022-11-21T17:06:23;13.65;;;6.10;;
72201;SDS011;60105;54.956;73.412;2022-11-21T17:08:53;12.63;;;7.65;;
72201;SDS011;60105;54.956;73.412;2022-11-21T17:11:21;10.63;;;6.22;;
72201;SDS011;60105;54.956;73.412;2022-11-21T17:13:53;9.40;;;5.25;;
72201;SDS011;60105;54.956;73.412;2022-11-21T17:16:28;13.95;;;6.40;;
72201;SDS011;60105;54.956;73.412;2022-11-21T17:18:55;16.20;;;6.72;;
72201;SDS011;60105;54.956;73.412;2022-11-21T17:21:29;12.83;;;6.23;;